Kasur, Pakistan
Current Conditions -  °F | °C
As of 8:25 PM on Thursday 23 Oct 2014 (Local Time) from OPLA Reporting Station
Haze Haze  
Wind Chill: 82°   Ceiling: Unl
Heat Index: 83°   Visibility: 3mi
Dew Point: 61°   Wind: 3mph
Humidity: 48%   Direction: 130°SE
Pressure: 29.91"   Gusts: NA
Location:  31.12°N, 74.45°E
Report Text: OPLA 231525Z 13003KT 5000 HZ NSC 28/16 Q1013
Loading
Personal Weather Stations






























Interactive Weather Map
Tropical Storm Tracking
New forecast layout! Learn more

10-Day Weather Forecast

Advertisements
Track Severe Weather on mobile